Time;durP1;ratioP1;P1;durP2;ratioP2;P2;SDS_P1;SDS_P2;PMS_P1;PMS_P2;Temp;Humidity;BMP_temperature;BMP_pressure;BME280_temperature;BME280_humidity;BME280_pressure;Samples;Min_cycle;Max_cycle;Signal;HPM_P1;HPM_P2
2022/03/23 00:01:45;;;;;;;24.42;17.30;;;;;;;17.38;41.64;102558.00;5052762;28;20207;-68
2022/03/23 00:04:10;;;;;;;16.63;12.90;;;;;;;17.25;41.52;102553.34;5052235;28;20051;-82
2022/03/23 00:06:36;;;;;;;12.77;10.35;;;;;;;17.14;41.21;102549.19;5051525;28;20051;-67
2022/03/23 00:09:01;;;;;;;18.98;14.13;;;;;;;16.93;41.03;102551.66;5051643;28;20446;-68
2022/03/23 00:11:28;;;;;;;24.27;16.58;;;;;;;16.89;41.06;102545.91;5052579;28;20074;-68
2022/03/23 00:13:54;;;;;;;23.92;15.57;;;;;;;16.80;41.34;102553.31;5052543;28;20104;-82
2022/03/23 00:16:20;;;;;;;22.38;17.52;;;;;;;16.77;41.30;102548.41;5052254;28;20390;-68
2022/03/23 00:18:46;;;;;;;21.27;15.35;;;;;;;16.75;41.11;102555.38;5052542;28;20025;-68
2022/03/23 00:21:12;;;;;;;18.17;14.50;;;;;;;16.64;41.22;102560.28;5052397;28;20028;-67
2022/03/23 00:23:37;;;;;;;26.52;17.90;;;;;;;16.64;41.12;102561.09;5052521;28;20368;-67
2022/03/23 00:26:03;;;;;;;25.50;17.95;;;;;;;16.63;41.17;102559.47;5052010;28;20037;-68
2022/03/23 00:28:29;;;;;;;29.73;20.85;;;;;;;16.61;41.16;102560.88;5051606;28;20032;-81
2022/03/23 00:30:55;;;;;;;25.77;17.55;;;;;;;16.61;41.29;102564.47;5052382;28;20033;-68
2022/03/23 00:33:23;;;;;;;28.25;19.63;;;;;;;16.57;41.31;102565.41;5052310;28;20112;-67
2022/03/23 00:35:49;;;;;;;27.98;18.45;;;;;;;16.58;41.24;102564.28;5052372;28;20032;-67
2022/03/23 00:38:16;;;;;;;27.40;18.75;;;;;;;16.54;41.09;102566.81;5052258;28;20115;-68
2022/03/23 00:40:44;;;;;;;28.55;17.95;;;;;;;16.52;41.33;102579.31;5051536;28;20061;-68
2022/03/23 00:43:11;;;;;;;31.17;20.13;;;;;;;16.44;41.33;102577.28;5051572;28;20037;-67
2022/03/23 00:45:38;;;;;;;28.35;21.48;;;;;;;16.46;41.48;102581.34;5051649;28;20036;-67
2022/03/23 00:48:04;;;;;;;33.00;22.85;;;;;;;16.84;40.62;102579.16;5051713;28;20092;-68
2022/03/23 00:50:30;;;;;;;31.42;20.50;;;;;;;16.88;40.45;102573.84;5051065;28;20048;-68
2022/03/23 00:52:56;;;;;;;30.33;21.15;;;;;;;16.74;40.92;102592.38;5051188;28;20036;-67
2022/03/23 00:55:22;;;;;;;28.33;20.70;;;;;;;16.92;40.68;102580.38;5052049;28;20029;-68
2022/03/23 00:57:47;;;;;;;33.22;21.70;;;;;;;16.96;40.64;102581.38;5052145;28;20025;-69
2022/03/23 01:00:16;;;;;;;27.75;19.50;;;;;;;16.79;40.84;102576.53;5052075;28;20025;-67
2022/03/23 01:02:44;;;;;;;30.50;18.52;;;;;;;16.56;41.35;102583.91;5052081;28;20493;-68
2022/03/23 01:05:11;;;;;;;25.30;17.85;;;;;;;16.53;41.06;102587.28;5051951;28;20024;-67
2022/03/23 01:07:38;;;;;;;27.98;16.75;;;;;;;16.47;41.47;102591.25;5051830;28;20036;-67
2022/03/23 01:10:05;;;;;;;25.65;16.33;;;;;;;16.41;41.02;102588.94;5051935;28;20029;-67
2022/03/23 01:12:31;;;;;;;27.73;17.15;;;;;;;16.34;41.32;102592.09;5051880;28;20053;-68
2022/03/23 01:14:58;;;;;;;23.17;17.30;;;;;;;16.33;41.26;102587.72;5051882;28;20115;-68
2022/03/23 01:17:24;;;;;;;25.15;17.80;;;;;;;16.30;41.30;102588.31;5051944;28;20037;-67
2022/03/23 01:19:50;;;;;;;25.17;17.30;;;;;;;16.20;41.24;102594.03;5034004;28;20040;-67
2022/03/23 01:22:16;;;;;;;21.30;14.95;;;;;;;16.15;41.01;102589.44;5051798;28;20414;-67
2022/03/23 01:24:43;;;;;;;24.40;16.77;;;;;;;16.10;41.17;102589.56;5051808;28;20064;-67
2022/03/23 01:27:09;;;;;;;22.77;17.25;;;;;;;16.00;41.24;102585.03;5053147;28;20483;-68
2022/03/23 01:29:35;;;;;;;23.90;16.58;;;;;;;15.98;41.22;102589.22;5054569;28;20095;-76
2022/03/23 01:32:01;;;;;;;23.20;17.42;;;;;;;15.94;41.14;102586.25;5055252;28;20028;-67
2022/03/23 01:34:26;;;;;;;26.70;17.33;;;;;;;15.91;41.26;102586.88;5055437;28;20509;-67
2022/03/23 01:36:52;;;;;;;19.77;15.43;;;;;;;15.92;40.99;102588.50;5055753;28;20103;-68
2022/03/23 01:39:17;;;;;;;26.42;18.08;;;;;;;15.88;41.24;102590.25;5055625;28;20414;-68
2022/03/23 01:41:43;;;;;;;23.10;16.80;;;;;;;15.89;41.09;102586.38;5055358;28;20537;-68
2022/03/23 01:44:20;;;;;;;20.23;16.10;;;;;;;15.82;41.15;102594.22;5055301;28;20032;-67
2022/03/23 01:47:07;;;;;;;23.02;15.90;;;;;;;15.72;41.25;102586.94;5055237;28;20391;-68
2022/03/23 01:49:35;;;;;;;24.17;17.35;;;;;;;15.74;40.98;102586.63;5054974;28;20083;-68
2022/03/23 01:52:01;;;;;;;21.60;15.68;;;;;;;15.74;40.86;102589.41;5055175;28;20032;-68
2022/03/23 01:54:26;;;;;;;24.10;15.85;;;;;;;15.68;40.98;102596.13;5055313;28;20029;-67
2022/03/23 01:56:53;;;;;;;24.25;15.52;;;;;;;15.62;40.99;102589.88;5055103;28;20481;-80
2022/03/23 01:59:19;;;;;;;22.23;15.45;;;;;;;15.63;40.80;102585.19;5055010;28;20028;-67
2022/03/23 02:01:45;;;;;;;26.70;18.70;;;;;;;15.62;40.89;102578.84;5055021;28;20033;-67
2022/03/23 02:04:11;;;;;;;16.83;12.48;;;;;;;15.63;40.80;102582.41;5055182;28;20375;-67
2022/03/23 02:06:37;;;;;;;22.63;15.25;;;;;;;15.54;40.80;102587.78;5055137;28;20032;-67
2022/03/23 02:09:03;;;;;;;22.65;16.10;;;;;;;15.55;40.99;102579.19;5054328;28;20029;-68
2022/03/23 02:11:32;;;;;;;25.75;16.95;;;;;;;15.59;40.71;102584.94;5054554;28;20025;-69
2022/03/23 02:13:58;;;;;;;28.15;19.13;;;;;;;15.60;40.98;102588.50;5055096;28;20021;-67
2022/03/23 02:16:24;;;;;;;21.15;15.57;;;;;;;15.57;40.93;102587.19;5054994;28;20184;-68
2022/03/23 02:18:50;;;;;;;28.27;16.75;;;;;;;15.54;40.77;102588.59;5054704;28;20028;-68
2022/03/23 02:21:17;;;;;;;22.30;17.05;;;;;;;15.51;40.61;102586.44;5054734;28;20462;-67
2022/03/23 02:23:43;;;;;;;27.05;15.60;;;;;;;15.49;40.77;102590.59;5054280;28;20057;-81
2022/03/23 02:26:09;;;;;;;24.33;16.33;;;;;;;15.42;40.79;102591.03;5035688;28;20075;-68
2022/03/23 02:28:36;;;;;;;19.05;14.32;;;;;;;15.34;40.49;102588.97;5054157;28;20041;-68
2022/03/23 02:31:05;;;;;;;20.15;14.40;;;;;;;15.25;40.51;102596.25;5054489;28;20028;-71
2022/03/23 02:33:31;;;;;;;24.08;15.80;;;;;;;15.17;40.43;102586.72;5054134;28;20024;-67
2022/03/23 02:35:57;;;;;;;20.35;15.63;;;;;;;15.11;40.62;102587.91;5054364;28;20033;-67
2022/03/23 02:38:22;;;;;;;21.05;17.00;;;;;;;15.11;40.39;102585.16;5053916;28;20032;-70
2022/03/23 02:40:48;;;;;;;22.65;16.35;;;;;;;15.13;40.28;102591.22;5054236;28;20070;-68
2022/03/23 02:43:15;;;;;;;19.33;11.38;;;;;;;15.05;40.58;102591.06;5053890;28;20032;-67
2022/03/23 02:45:40;;;;;;;23.20;14.73;;;;;;;14.97;40.44;102587.88;5054065;28;20432;-67
2022/03/23 02:48:07;;;;;;;22.63;15.45;;;;;;;14.97;40.40;102584.31;5053903;28;20029;-67
2022/03/23 02:50:35;;;;;;;22.70;16.00;;;;;;;14.98;40.22;102592.25;5054102;28;20057;-67
2022/03/23 03:02:13;;;;;;;37.00;16.63;;;;;;;15.02;40.43;102595.22;5054291;28;20505;-67
2022/03/23 03:04:32;;;;;;;26.88;16.80;;;;;;;15.08;40.25;102595.97;5050737;28;20392;-78
2022/03/23 03:06:58;;;;;;;22.92;15.55;;;;;;;15.14;40.52;102595.59;5053594;28;20054;-68
2022/03/23 03:09:23;;;;;;;19.20;14.13;;;;;;;15.17;40.42;102588.66;5053781;28;20029;-73
2022/03/23 03:11:50;;;;;;;16.77;13.55;;;;;;;15.16;40.38;102592.53;5053936;28;20517;-68
2022/03/23 03:14:15;;;;;;;21.77;15.02;;;;;;;15.12;40.51;102588.75;5053957;28;20459;-79
2022/03/23 03:16:41;;;;;;;19.15;14.45;;;;;;;15.09;40.34;102586.59;5053618;28;20035;-70
2022/03/23 03:19:09;;;;;;;21.48;14.50;;;;;;;15.04;40.34;102587.50;5052508;28;20028;-67
2022/03/23 03:21:35;;;;;;;19.15;14.43;;;;;;;14.97;40.31;102601.63;5053575;28;20394;-68
2022/03/23 03:24:01;;;;;;;19.27;13.77;;;;;;;14.92;40.21;102606.38;5053608;28;20029;-82
2022/03/23 03:26:28;;;;;;;20.15;14.30;;;;;;;14.85;40.51;102609.50;5053062;28;20060;-80
2022/03/23 03:28:54;;;;;;;21.75;15.45;;;;;;;14.89;40.22;102605.06;5052902;28;20129;-68
2022/03/23 03:31:19;;;;;;;21.70;15.10;;;;;;;14.87;40.23;102600.94;5053418;28;20053;-81
2022/03/23 03:33:45;;;;;;;21.33;15.57;;;;;;;14.85;40.15;102614.19;5053185;28;20061;-68
2022/03/23 03:36:11;;;;;;;19.08;14.23;;;;;;;14.83;40.46;102602.66;5053459;28;20090;-78
2022/03/23 03:38:38;;;;;;;24.80;17.05;;;;;;;14.81;40.14;102610.38;5052545;28;20021;-67
2022/03/23 03:41:05;;;;;;;18.55;13.10;;;;;;;14.76;40.18;102603.03;5053363;28;20031;-67
2022/03/23 03:43:31;;;;;;;20.75;14.50;;;;;;;14.70;40.20;102606.97;5052967;28;20021;-67
2022/03/23 03:45:58;;;;;;;23.17;16.45;;;;;;;14.64;40.14;102608.94;5052770;28;20021;-82
2022/03/23 03:48:24;;;;;;;24.35;16.10;;;;;;;14.64;40.04;102608.13;5053346;28;20025;-68
2022/03/23 03:50:51;;;;;;;23.55;15.52;;;;;;;14.59;40.18;102613.72;5052215;28;20031;-68
2022/03/23 03:53:16;;;;;;;24.90;16.65;;;;;;;14.57;40.20;102611.25;5052959;28;20036;-67
2022/03/23 03:55:43;;;;;;;24.83;17.98;;;;;;;14.56;40.17;102609.59;5052849;28;20029;-80
2022/03/23 03:58:09;;;;;;;23.27;16.30;;;;;;;14.60;40.21;102615.34;5035144;28;20356;-72
2022/03/23 04:00:36;;;;;;;23.52;16.15;;;;;;;14.57;40.38;102608.50;5050277;28;20535;-81
2022/03/23 04:03:04;;;;;;;25.45;16.13;;;;;;;14.50;40.49;102613.53;5052643;28;20396;-81
2022/03/23 04:05:31;;;;;;;26.80;17.58;;;;;;;14.43;40.48;102611.13;5052407;28;20029;-68
2022/03/23 04:07:57;;;;;;;24.98;16.20;;;;;;;14.38;40.50;102604.88;5052535;28;20025;-68
2022/03/23 04:10:26;;;;;;;20.58;14.60;;;;;;;14.30;40.71;102603.56;5052621;28;20036;-81
2022/03/23 04:12:52;;;;;;;21.58;16.02;;;;;;;14.35;40.36;102608.19;5052973;28;20098;-68
2022/03/23 04:15:21;;;;;;;22.88;17.30;;;;;;;14.33;40.41;102604.91;5052691;28;20033;-67
2022/03/23 04:17:47;;;;;;;20.33;14.68;;;;;;;14.32;40.33;102606.84;5052365;28;20061;-68
2022/03/23 04:20:13;;;;;;;23.63;16.27;;;;;;;14.26;40.47;102609.94;5052482;28;20489;-67
2022/03/23 04:22:39;;;;;;;22.88;15.60;;;;;;;14.24;40.37;102607.50;5052728;28;20025;-67
2022/03/23 04:25:11;;;;;;;24.88;16.42;;;;;;;14.19;40.51;102617.72;5052516;28;20025;-67
2022/03/23 04:27:56;;;;;;;23.38;17.52;;;;;;;14.12;40.65;102605.13;5052208;28;20041;-68
2022/03/23 04:32:58;;;;;;;21.83;15.57;;;;;;;14.11;40.77;102610.94;5087977;22;20060;-82
2022/03/23 04:35:26;;;;;;;31.98;18.88;;;;;;;14.05;40.62;102609.34;5032465;28;20079;-69
2022/03/23 04:37:52;;;;;;;26.67;18.20;;;;;;;14.11;40.82;102609.00;5032626;28;20033;-68
2022/03/23 04:40:18;;;;;;;28.90;19.75;;;;;;;14.12;40.81;102613.38;5032388;28;20039;-67
2022/03/23 04:42:45;;;;;;;23.88;16.17;;;;;;;14.11;40.83;102619.19;5032721;28;20043;-67
2022/03/23 04:45:12;;;;;;;24.77;16.17;;;;;;;14.21;40.63;102626.47;5032757;28;20470;-68
2022/03/23 04:47:38;;;;;;;23.33;17.17;;;;;;;14.22;40.54;102628.16;5032289;28;20037;-68
2022/03/23 04:50:08;;;;;;;29.13;18.52;;;;;;;14.22;40.58;102620.72;5032364;28;20068;-69
2022/03/23 04:52:34;;;;;;;;;;;;;;;14.12;40.58;102621.63;5032746;28;20116;-68
2022/03/23 04:54:59;;;;;;;22.45;14.68;;;;;;;14.16;40.41;102627.38;5032352;28;19959;-67
2022/03/23 04:57:26;;;;;;;25.15;17.90;;;;;;;14.20;40.35;102631.16;5032590;28;20033;-67
2022/03/23 04:59:53;;;;;;;23.88;16.60;;;;;;;14.21;40.33;102632.84;5032266;28;20026;-67
2022/03/23 05:02:18;;;;;;;20.60;15.20;;;;;;;14.20;40.27;102633.91;5035774;28;20037;-67
2022/03/23 05:04:45;;;;;;;22.13;16.05;;;;;;;14.06;40.41;102638.50;5036476;28;20025;-68
2022/03/23 05:07:12;;;;;;;21.08;16.77;;;;;;;14.07;40.38;102642.88;5036147;28;20037;-67
2022/03/23 05:09:37;;;;;;;22.88;16.58;;;;;;;14.06;40.39;102639.31;5036106;28;20113;-67
2022/03/23 05:12:03;;;;;;;26.52;17.73;;;;;;;13.99;40.29;102638.00;5036113;28;20108;-67
2022/03/23 05:14:29;;;;;;;27.73;18.13;;;;;;;13.89;40.30;102639.72;5036050;28;20029;-67
2022/03/23 05:16:54;;;;;;;22.75;17.50;;;;;;;13.89;40.58;102636.97;5018300;28;20029;-67
2022/03/23 05:19:20;;;;;;;31.88;18.80;;;;;;;13.77;40.73;102633.00;5035936;28;20048;-68
2022/03/23 05:21:46;;;;;;;25.35;18.23;;;;;;;13.79;40.85;102641.75;5035891;28;20071;-68
2022/03/23 05:24:11;;;;;;;28.38;18.75;;;;;;;13.80;40.83;102644.22;5035862;28;20026;-67
2022/03/23 05:26:38;;;;;;;25.98;17.55;;;;;;;13.79;40.54;102641.75;5035995;28;20075;-68
2022/03/23 05:29:04;;;;;;;24.10;15.40;;;;;;;13.75;40.52;102648.91;5035758;28;20029;-67
2022/03/23 05:31:30;;;;;;;23.50;16.48;;;;;;;13.73;40.67;102649.22;5035561;28;20124;-68
2022/03/23 05:33:55;;;;;;;29.05;18.85;;;;;;;13.70;40.97;102641.56;5035732;28;20190;-67
2022/03/23 05:36:21;;;;;;;24.67;18.42;;;;;;;13.72;40.92;102653.06;5017989;28;20601;-68
2022/03/23 05:38:46;;;;;;;27.67;19.33;;;;;;;13.75;41.14;102641.53;5035890;28;20387;-67
2022/03/23 05:41:12;;;;;;;32.58;20.10;;;;;;;13.77;41.27;102642.06;5035622;28;20403;-68
2022/03/23 05:43:38;;;;;;;21.13;16.27;;;;;;;13.98;40.83;102636.34;5035475;28;20053;-67
2022/03/23 05:46:03;;;;;;;28.77;17.42;;;;;;;13.96;40.59;102639.38;5035681;28;20352;-68
2022/03/23 05:48:29;;;;;;;31.17;19.27;;;;;;;13.98;40.83;102650.94;5035778;28;20482;-67
2022/03/23 05:50:54;;;;;;;30.55;20.60;;;;;;;14.03;40.72;102650.88;5035682;28;20517;-68
2022/03/23 05:53:20;;;;;;;28.67;18.75;;;;;;;14.12;40.65;102653.78;5035400;28;20368;-67
2022/03/23 05:55:46;;;;;;;29.15;19.77;;;;;;;14.10;40.87;102648.59;5035344;28;20025;-68
2022/03/23 05:58:11;;;;;;;28.33;17.92;;;;;;;14.04;40.95;102649.75;5035275;28;20527;-68
2022/03/23 06:00:37;;;;;;;25.85;15.82;;;;;;;14.00;40.96;102653.38;5035315;28;20021;-81
2022/03/23 06:03:02;;;;;;;24.77;17.27;;;;;;;13.91;40.92;102653.19;5035236;28;20033;-67
2022/03/23 06:05:28;;;;;;;26.40;19.13;;;;;;;13.87;41.14;102655.69;5034715;28;20065;-67
2022/03/23 06:07:54;;;;;;;25.17;18.05;;;;;;;13.85;40.99;102655.16;5034874;28;20030;-67
2022/03/23 06:10:19;;;;;;;27.27;18.38;;;;;;;13.85;40.95;102657.09;5034965;28;20029;-67
2022/03/23 06:12:45;;;;;;;26.83;18.05;;;;;;;13.89;41.10;102667.19;5034159;28;20048;-67
2022/03/23 06:15:11;;;;;;;25.95;18.45;;;;;;;13.89;41.13;102664.47;5034890;28;20033;-67
2022/03/23 06:17:37;;;;;;;25.98;18.63;;;;;;;13.86;41.23;102670.53;5035076;28;20473;-67
2022/03/23 06:20:05;;;;;;;25.27;17.23;;;;;;;13.88;41.16;102662.81;5034784;28;20153;-80
2022/03/23 06:22:31;;;;;;;26.52;19.00;;;;;;;13.86;41.19;102666.97;5034950;28;20116;-68
2022/03/23 06:24:56;;;;;;;24.77;16.98;;;;;;;13.80;41.27;102671.69;5034794;28;20621;-67
2022/03/23 06:27:22;;;;;;;26.90;18.83;;;;;;;13.79;41.21;102681.03;5016934;28;20091;-67
2022/03/23 06:29:48;;;;;;;31.88;19.52;;;;;;;13.80;41.28;102681.84;5034599;28;20026;-67
2022/03/23 06:32:14;;;;;;;30.33;20.60;;;;;;;13.72;41.56;102683.28;5034468;28;20513;-68
2022/03/23 06:34:40;;;;;;;23.58;19.42;;;;;;;13.78;41.70;102682.16;5034523;28;20036;-67
2022/03/23 06:37:05;;;;;;;27.90;17.95;;;;;;;13.79;41.44;102675.53;5034396;28;20033;-68
2022/03/23 06:39:32;;;;;;;27.48;18.17;;;;;;;13.63;41.73;102673.22;5034492;28;20037;-67
2022/03/23 06:41:58;;;;;;;33.53;19.58;;;;;;;13.67;41.61;102671.53;5034414;28;20386;-81
2022/03/23 06:44:24;;;;;;;27.40;19.35;;;;;;;13.74;41.39;102674.75;5034502;28;20025;-67
2022/03/23 06:46:50;;;;;;;31.73;19.80;;;;;;;13.67;41.93;102683.31;5016561;28;20056;-67
2022/03/23 06:49:16;;;;;;;24.23;18.02;;;;;;;13.82;41.42;102679.63;5034284;28;20114;-81
2022/03/23 06:51:42;;;;;;;23.00;18.50;;;;;;;13.67;41.64;102675.09;5000215;28;20088;-67
2022/03/23 06:54:08;;;;;;;24.33;16.25;;;;;;;13.73;41.56;102675.88;5034368;28;20029;-67
2022/03/23 06:56:34;;;;;;;25.33;17.27;;;;;;;13.71;41.47;102673.41;5034154;28;20040;-67
2022/03/23 06:58:59;;;;;;;26.95;19.92;;;;;;;13.78;41.53;102673.09;5016487;28;20029;-79
2022/03/23 07:01:25;;;;;;;28.17;18.35;;;;;;;13.70;41.83;102681.94;5034347;28;20036;-69
2022/03/23 07:03:50;;;;;;;25.75;18.17;;;;;;;13.81;41.72;102689.81;5033951;28;20036;-67
2022/03/23 07:06:16;;;;;;;32.00;18.25;;;;;;;13.86;41.69;102689.78;5033932;28;20504;-67
2022/03/23 07:11:30;;;;;;;32.08;20.83;;;;;;;14.02;42.14;102695.13;5033885;28;20037;-73
2022/03/23 07:13:56;;;;;;;25.20;18.60;;;;;;;14.14;41.97;102685.41;5033768;28;20029;-67
2022/03/23 07:16:22;;;;;;;26.08;17.88;;;;;;;14.22;41.74;102710.63;5033991;28;20420;-67
2022/03/23 07:18:49;;;;;;;26.25;18.35;;;;;;;14.19;41.92;102705.69;5033598;28;20079;-70
2022/03/23 07:21:14;;;;;;;35.47;19.27;;;;;;;14.19;42.12;102711.19;5033604;28;20388;-69
2022/03/23 07:23:40;;;;;;;26.98;17.35;;;;;;;14.32;42.08;102714.09;5033152;28;20032;-69
2022/03/23 07:26:06;;;;;;;22.65;16.63;;;;;;;14.33;41.78;102717.66;5032778;28;20025;-70
2022/03/23 07:28:32;;;;;;;26.23;17.85;;;;;;;14.44;42.19;102708.22;5033640;28;20029;-67
2022/03/23 07:30:58;;;;;;;29.45;18.63;;;;;;;14.46;42.29;102718.94;5033121;28;20021;-67
2022/03/23 07:33:25;;;;;;;24.98;18.33;;;;;;;14.64;42.14;102715.44;5033577;28;20075;-68
2022/03/23 07:35:51;;;;;;;24.33;17.40;;;;;;;14.70;42.10;102712.34;5033446;28;20460;-68
2022/03/23 07:38:17;;;;;;;25.90;18.42;;;;;;;14.68;42.72;102708.25;5033310;28;20080;-72
2022/03/23 07:40:43;;;;;;;23.70;18.13;;;;;;;14.80;42.60;102721.56;5033372;28;20029;-70
2022/03/23 07:43:08;;;;;;;24.73;18.13;;;;;;;14.96;42.42;102715.59;5033310;28;20044;-81
2022/03/23 07:45:34;;;;;;;24.45;17.92;;;;;;;15.01;42.56;102711.13;5033314;28;20052;-67
2022/03/23 07:48:00;;;;;;;29.83;20.23;;;;;;;15.12;42.74;102716.22;5033293;28;20048;-66
2022/03/23 07:50:26;;;;;;;27.13;18.92;;;;;;;15.19;42.80;102722.19;5033277;28;20084;-66
2022/03/23 07:52:52;;;;;;;26.73;20.75;;;;;;;15.39;43.04;102718.31;5032609;28;20029;-68
2022/03/23 07:55:17;;;;;;;29.15;19.60;;;;;;;15.57;42.94;102719.44;5032136;28;20032;-66
2022/03/23 07:57:44;;;;;;;34.92;21.08;;;;;;;15.66;43.18;102714.91;5032929;28;20034;-68
2022/03/23 08:00:11;;;;;;;28.70;19.85;;;;;;;15.87;43.06;102717.31;5032319;28;20464;-67
2022/03/23 08:02:37;;;;;;;27.70;20.88;;;;;;;16.04;42.88;102725.88;5033099;28;20447;-72
2022/03/23 08:05:05;;;;;;;29.83;20.65;;;;;;;16.11;43.35;102722.75;5032955;28;20379;-67
2022/03/23 08:07:31;;;;;;;36.55;21.90;;;;;;;16.17;43.49;102724.25;5032670;28;20038;-69
2022/03/23 08:09:56;;;;;;;36.70;22.98;;;;;;;16.31;43.86;102722.34;5033536;28;20116;-83
2022/03/23 08:12:22;;;;;;;35.40;23.02;;;;;;;16.50;44.06;102728.63;5033062;28;20068;-72
2022/03/23 08:14:47;;;;;;;32.15;23.30;;;;;;;16.76;44.13;102728.97;5033250;28;20037;-69
2022/03/23 08:17:13;;;;;;;38.90;24.52;;;;;;;17.00;44.21;102737.03;5032850;28;20463;-70
2022/03/23 08:19:39;;;;;;;31.23;25.70;;;;;;;17.23;44.34;102739.88;5014068;28;20033;-70
2022/03/23 08:22:05;;;;;;;30.75;23.98;;;;;;;17.39;44.32;102736.47;5030979;28;20536;-70
2022/03/23 08:24:31;;;;;;;35.00;22.83;;;;;;;17.48;44.77;102739.31;5030940;28;20075;-69
2022/03/23 08:26:56;;;;;;;28.88;22.70;;;;;;;17.69;44.84;102746.00;5031238;28;20108;-69
2022/03/23 08:29:22;;;;;;;38.88;25.63;;;;;;;17.96;44.44;102744.28;5030826;28;20052;-69
2022/03/23 08:31:48;;;;;;;32.10;23.77;;;;;;;18.02;44.63;102748.56;5030653;28;20526;-70
2022/03/23 08:34:14;;;;;;;29.85;22.48;;;;;;;18.24;44.57;102751.31;5030752;28;20029;-69
2022/03/23 08:36:39;;;;;;;33.13;23.15;;;;;;;18.39;44.64;102752.03;5012778;28;20030;-69
2022/03/23 08:39:06;;;;;;;32.95;23.00;;;;;;;18.61;44.44;102751.97;5013849;28;20391;-70
2022/03/23 08:41:31;;;;;;;28.77;22.25;;;;;;;18.71;44.44;102746.19;5032405;28;20112;-70
2022/03/23 08:43:57;;;;;;;32.53;23.23;;;;;;;18.73;44.68;102752.22;5032872;28;20113;-83
2022/03/23 08:46:24;;;;;;;32.33;21.27;;;;;;;18.86;44.62;102747.69;5032637;28;20025;-70
2022/03/23 08:48:50;;;;;;;27.17;20.33;;;;;;;18.99;44.50;102746.78;5031676;28;20079;-71
2022/03/23 08:51:17;;;;;;;28.40;22.08;;;;;;;19.00;44.54;102753.94;5032054;28;20096;-70
2022/03/23 08:53:43;;;;;;;31.70;21.83;;;;;;;19.06;44.57;102752.66;5032272;28;20025;-70
2022/03/23 08:56:10;;;;;;;35.38;21.10;;;;;;;19.23;44.41;102754.66;5032171;28;20037;-70
2022/03/23 08:58:47;;;;;;;28.83;21.25;;;;;;;19.30;44.35;102757.75;5032600;28;20104;-85
2022/03/23 09:01:13;;;;;;;36.25;21.25;;;;;;;19.44;44.28;102756.81;5032370;28;20040;-72
2022/03/23 09:03:39;;;;;;;31.08;21.67;;;;;;;19.53;44.12;102754.84;5032226;28;20029;-72
2022/03/23 09:06:04;;;;;;;26.48;21.40;;;;;;;19.57;44.24;102747.53;5030869;28;20036;-79
2022/03/23 09:08:30;;;;;;;31.73;21.33;;;;;;;19.65;44.03;102755.06;5032593;28;20029;-77
2022/03/23 09:10:56;;;;;;;29.27;21.40;;;;;;;19.70;44.13;102754.88;5032687;28;20386;-72
2022/03/23 09:13:22;;;;;;;26.38;19.60;;;;;;;19.71;44.01;102752.91;5032501;28;20475;-70
2022/03/23 09:15:48;;;;;;;23.08;17.67;;;;;;;19.81;43.90;102758.97;5032380;28;20045;-78
2022/03/23 09:18:13;;;;;;;27.42;19.17;;;;;;;19.91;43.60;102755.84;5032144;28;20026;-73
2022/03/23 09:20:39;;;;;;;26.05;19.98;;;;;;;19.93;43.73;102759.09;5032140;28;20029;-71
2022/03/23 09:23:05;;;;;;;25.92;18.50;;;;;;;19.99;43.50;102761.72;5032251;28;20666;-70
2022/03/23 09:25:31;;;;;;;37.40;20.63;;;;;;;20.06;43.31;102762.84;5032285;28;20467;-69
2022/03/23 09:27:57;;;;;;;26.40;17.35;;;;;;;20.26;43.01;102757.75;5032172;28;20033;-70
2022/03/23 09:30:22;;;;;;;28.38;19.08;;;;;;;20.21;43.20;102755.97;5031994;28;20075;-69
2022/03/23 09:32:48;;;;;;;27.40;18.48;;;;;;;20.35;42.80;102767.69;5014327;28;20615;-72
2022/03/23 09:35:15;;;;;;;22.02;18.42;;;;;;;20.44;42.57;102771.28;5014223;28;20029;-70
2022/03/23 09:37:47;;;;;;;30.42;18.73;;;;;;;20.59;42.29;102767.16;5032000;28;20108;-70
2022/03/23 09:40:23;;;;;;;21.33;16.92;;;;;;;20.73;42.12;102775.28;5031898;28;20030;-70
2022/03/23 09:42:48;;;;;;;27.30;18.17;;;;;;;20.76;41.97;102778.19;5031915;28;20021;-70
2022/03/23 09:45:22;;;;;;;26.38;17.45;;;;;;;20.71;41.97;102775.63;5031776;28;20456;-70
2022/03/23 09:47:47;;;;;;;22.40;17.35;;;;;;;20.88;41.49;102779.47;5032629;28;20391;-70
2022/03/23 09:50:13;;;;;;;20.83;16.13;;;;;;;20.87;41.54;102773.09;5035438;28;20112;-70
2022/03/23 09:52:39;;;;;;;23.55;16.40;;;;;;;20.90;41.51;102768.81;5035589;28;20029;-70
2022/03/23 09:55:05;;;;;;;22.92;16.13;;;;;;;20.87;41.25;102773.09;5035407;28;20029;-84
2022/03/23 09:57:31;;;;;;;24.58;15.63;;;;;;;21.03;41.17;102782.47;5035691;28;20026;-77
2022/03/23 09:59:57;;;;;;;33.45;16.70;;;;;;;21.09;40.83;102782.31;5036041;28;20471;-72
2022/03/23 10:02:59;;;;;;;23.92;15.50;;;;;;;21.24;40.42;102778.94;5035298;28;20033;-76
2022/03/23 10:05:58;;;;;;;23.67;14.07;;;;;;;21.27;40.08;102781.88;5035471;28;20547;-71
2022/03/23 10:08:42;;;;;;;28.17;15.70;;;;;;;21.32;39.67;102787.25;5035139;28;20085;-70
2022/03/23 10:11:26;;;;;;;27.55;15.45;;;;;;;21.44;39.51;102792.06;5017397;28;20061;-72
2022/03/23 10:14:29;;;;;;;23.38;15.57;;;;;;;21.52;38.89;102782.03;5017232;28;20087;-70
2022/03/23 10:17:19;;;;;;;21.48;14.65;;;;;;;21.47;38.74;102783.06;5034923;28;20025;-70
2022/03/23 10:19:44;;;;;;;22.02;15.38;;;;;;;21.64;38.82;102779.31;5035007;28;20025;-70
2022/03/23 10:22:13;;;;;;;27.58;15.93;;;;;;;21.58;38.34;102778.72;5034843;28;20506;-70
2022/03/23 10:24:38;;;;;;;23.30;14.85;;;;;;;21.65;38.35;102782.94;5017228;28;20025;-71
2022/03/23 10:27:12;;;;;;;30.88;15.02;;;;;;;21.42;38.71;102785.22;5034867;28;20067;-71
2022/03/23 10:29:46;;;;;;;21.02;13.40;;;;;;;21.36;38.64;102787.38;5035050;28;20080;-71
2022/03/23 10:32:13;;;;;;;22.25;14.27;;;;;;;21.63;38.14;102788.03;5034716;28;20042;-71
2022/03/23 10:34:50;;;;;;;25.08;14.32;;;;;;;21.62;38.20;102787.22;5017062;28;20457;-85
2022/03/23 10:37:24;;;;;;;20.42;14.55;;;;;;;21.63;38.08;102788.03;5034733;28;20032;-71
2022/03/23 10:39:50;;;;;;;18.35;13.85;;;;;;;21.55;38.13;102790.53;5034821;28;20029;-72
2022/03/23 10:42:18;;;;;;;24.70;14.13;;;;;;;21.71;38.00;102790.72;5034271;28;20490;-71
2022/03/23 10:44:45;;;;;;;43.83;17.80;;;;;;;21.69;38.06;102792.19;5034672;28;20040;-71
2022/03/23 10:47:31;;;;;;;20.23;14.57;;;;;;;21.65;37.85;102791.28;5034759;28;20384;-71
2022/03/23 10:50:10;;;;;;;24.35;14.93;;;;;;;21.77;37.69;102792.16;5034579;28;20067;-71
2022/03/23 10:52:49;;;;;;;19.60;13.48;;;;;;;21.74;37.91;102794.78;5034445;28;20034;-71
2022/03/23 10:55:16;;;;;;;22.63;14.07;;;;;;;21.89;37.59;102791.38;5034597;28;20368;-71
2022/03/23 10:57:42;;;;;;;20.27;14.07;;;;;;;21.93;37.57;102786.78;5034666;28;20105;-71
2022/03/23 11:00:08;;;;;;;19.65;14.35;;;;;;;22.07;37.11;102787.31;5033993;28;20104;-86
2022/03/23 11:02:46;;;;;;;21.88;15.82;;;;;;;21.78;37.22;102790.19;5033845;28;20022;-70
2022/03/23 11:05:13;;;;;;;24.38;13.75;;;;;;;22.07;36.86;102792.88;5012085;28;20446;-79
2022/03/23 11:07:40;;;;;;;20.38;13.80;;;;;;;22.29;36.51;102791.72;5032624;28;20075;-71
2022/03/23 11:15:49;;;;;;;35.35;14.82;;;;;;;22.50;36.25;102782.44;5033911;28;20451;-70
2022/03/23 11:18:19;;;;;;;23.38;15.13;;;;;;;22.39;36.12;102782.09;5033686;28;20032;-70
2022/03/23 11:20:52;;;;;;;23.83;14.38;;;;;;;22.52;35.79;102774.56;5015949;28;20056;-70
2022/03/23 11:23:35;;;;;;;28.55;14.98;;;;;;;22.51;35.89;102782.09;5031591;28;20031;-71
2022/03/23 11:26:03;;;;;;;17.73;13.48;;;;;;;22.51;35.79;102773.75;5033330;28;20056;-72
2022/03/23 11:28:35;;;;;;;26.77;14.38;;;;;;;22.65;36.00;102768.66;5033369;28;20181;-71
2022/03/23 11:31:04;;;;;;;25.45;15.35;;;;;;;22.59;36.15;102769.22;5032904;28;20053;-71